Time;durP1;ratioP1;P1;durP2;ratioP2;P2;SDS_P1;SDS_P2;PMS_P1;PMS_P2;Temp;Humidity;BMP_temperature;BMP_pressure;BME280_temperature;BME280_humidity;BME280_pressure;Samples;Min_cycle;Max_cycle;Signal;HPM_P1;HPM_P2
2023/07/13 00:00:58;;;;;;;14.07;13.57;;;;;;;-141.02;100.00;46669.94;5134458;27;20287;-57
2023/07/13 00:03:25;;;;;;;14.30;13.80;;;;;;;-141.02;100.00;46575.75;5133879;27;20685;-56
2023/07/13 00:05:59;;;;;;;14.50;14.00;;;;;;;-141.02;100.00;46604.59;5133752;27;20228;-58
2023/07/13 00:08:27;;;;;;;14.25;13.75;;;;;;;-141.02;100.00;46074.19;5133816;27;20709;-63
2023/07/13 00:10:54;;;;;;;13.98;13.48;;;;;;;-141.02;100.00;46800.63;5134031;27;20296;-56
2023/07/13 00:13:21;;;;;;;14.25;13.75;;;;;;;-141.02;100.00;46483.50;5133667;27;20618;-62
2023/07/13 00:15:49;;;;;;;14.30;13.80;;;;;;;-141.02;100.00;46698.78;5133875;27;20283;-63
2023/07/13 00:18:16;;;;;;;14.43;13.93;;;;;;;-141.02;100.00;45956.97;5133829;27;20196;-61
2023/07/13 00:20:43;;;;;;;14.75;14.20;;;;;;;-141.02;100.00;45639.94;5133592;27;20574;-61
2023/07/13 00:23:10;;;;;;;14.60;14.10;;;;;;;-141.02;100.00;46047.28;5133955;27;20245;-59
2023/07/13 00:25:38;;;;;;;14.68;14.18;;;;;;;-141.02;100.00;45920.47;5133859;27;20275;-57
2023/07/13 00:28:05;;;;;;;14.73;14.23;;;;;;;-141.02;100.00;46222.16;5133802;27;20275;-60
2023/07/13 00:30:32;;;;;;;14.27;13.77;;;;;;;-141.02;100.00;46414.34;5133714;27;20227;-64
2023/07/13 00:33:01;;;;;;;14.00;13.50;;;;;;;-141.02;100.00;46750.66;5133266;27;20228;-57
2023/07/13 00:35:31;;;;;;;13.85;13.35;;;;;;;-141.02;100.00;46990.91;5133610;27;20212;-60
2023/07/13 00:37:58;;;;;;;14.25;13.75;;;;;;;-141.02;100.00;46147.22;5133572;27;20199;-55
2023/07/13 00:40:25;;;;;;;14.85;14.35;;;;;;;-141.02;100.00;45876.28;5133230;27;20228;-57
2023/07/13 00:42:54;;;;;;;14.60;14.10;;;;;;;-141.02;100.00;45674.53;5133579;27;20196;-56
2023/07/13 00:45:58;;;;;;;14.55;14.05;;;;;;;-141.02;100.00;45380.56;5133457;27;20624;-59
2023/07/13 00:48:30;;;;;;;15.00;14.40;;;;;;;-141.02;100.00;45730.25;5133732;27;20257;-60
2023/07/13 00:51:01;;;;;;;14.57;14.07;;;;;;;-141.02;100.00;45916.63;5133108;27;20220;-55
2023/07/13 00:53:32;;;;;;;14.40;13.90;;;;;;;-141.02;100.00;46281.72;5133350;27;20220;-57
2023/07/13 00:55:59;;;;;;;14.25;13.75;;;;;;;-141.02;100.00;46673.78;5133000;27;20659;-56
2023/07/13 00:58:29;;;;;;;14.00;13.50;;;;;;;-141.02;100.00;47283.09;5133037;27;20193;-57
2023/07/13 01:00:56;;;;;;;13.68;13.18;;;;;;;-141.02;100.00;47700.25;5133214;27;20199;-56
2023/07/13 01:10:17;;;;;;;13.25;12.85;;;;;;;-141.02;100.00;48511.66;5133251;27;20229;-64
2023/07/13 01:19:39;;;;;;;12.88;12.48;;;;;;;-141.02;100.00;48925.13;5118313;27;20208;-56
2023/07/13 01:22:42;;;;;;;12.95;12.55;;;;;;;-141.02;100.00;49438.66;5132753;28;20192;-57
2023/07/13 01:25:09;;;;;;;13.15;12.75;;;;;;;-141.02;100.00;49361.72;5132679;28;20287;-57
2023/07/13 01:27:36;;;;;;;13.38;12.98;;;;;;;-141.02;100.00;48327.06;5133051;28;20288;-56
2023/07/13 01:30:04;;;;;;;14.00;13.50;;;;;;;-141.02;100.00;47423.41;5132797;28;20188;-59
2023/07/13 01:32:41;;;;;;;14.63;14.13;;;;;;;-141.02;100.00;46708.38;5132856;28;20321;-64
2023/07/13 01:35:43;;;;;;;15.40;14.80;;;;;;;-141.02;100.00;45728.31;5132705;28;20196;-58
2023/07/13 01:41:33;;;;;;;16.65;15.95;;;;;;;-141.02;100.00;44871.50;5132664;28;20179;-57
2023/07/13 01:44:00;;;;;;;16.45;15.75;;;;;;;-141.02;100.00;44994.44;5132530;28;20666;-55
2023/07/13 01:46:27;;;;;;;17.00;16.30;;;;;;;-141.02;100.00;45098.16;5132446;28;20754;-57
2023/07/13 01:48:54;;;;;;;16.65;15.95;;;;;;;-141.02;100.00;45053.97;5132800;28;20242;-61
2023/07/13 01:51:21;;;;;;;16.83;16.13;;;;;;;-141.02;100.00;44291.41;5135235;27;20599;-57
2023/07/13 01:53:49;;;;;;;17.75;16.95;;;;;;;-141.02;100.00;43915.00;5137491;27;20259;-58
2023/07/13 01:56:16;;;;;;;18.10;17.20;;;;;;;-141.02;100.00;43342.78;5136374;27;20570;-56
2023/07/13 01:58:46;;;;;;;18.67;17.77;;;;;;;-141.02;100.00;43135.44;5136596;27;20291;-56
2023/07/13 02:07:56;;;;;;;18.40;17.48;;;;;;;-141.02;100.00;43081.66;5136460;27;20301;-57
2023/07/13 02:10:23;;;;;;;18.02;17.13;;;;;;;-141.02;100.00;43523.28;5136460;27;20275;-57
2023/07/13 02:12:51;;;;;;;17.85;16.95;;;;;;;-141.02;100.00;43442.63;5135824;27;20272;-58
2023/07/13 02:15:20;;;;;;;17.83;16.92;;;;;;;-141.02;100.00;43346.63;5136037;27;20309;-55
2023/07/13 02:17:47;;;;;;;17.70;16.80;;;;;;;-141.02;100.00;43427.28;5135972;27;20649;-61
2023/07/13 02:20:14;;;;;;;17.90;17.00;;;;;;;-141.02;100.00;43298.63;5135835;27;20197;-59
2023/07/13 02:22:41;;;;;;;17.63;16.75;;;;;;;-141.02;100.00;43289.03;5135892;27;20239;-57
2023/07/13 02:25:09;;;;;;;17.80;16.90;;;;;;;-141.02;100.00;43519.44;5135772;27;20279;-56
2023/07/13 02:31:15;;;;;;;17.63;16.73;;;;;;;-141.02;100.00;43020.25;5135913;27;20243;-56
2023/07/13 02:37:04;;;;;;;17.13;16.33;;;;;;;-141.02;100.00;43346.63;5135772;27;20168;-62
2023/07/13 02:39:32;;;;;;;16.63;15.82;;;;;;;-141.02;100.00;43542.47;5135497;27;20646;-63
2023/07/13 02:45:21;;;;;;;15.48;14.88;;;;;;;-141.02;100.00;44644.81;5135652;27;20180;-59
2023/07/13 02:47:49;;;;;;;15.20;14.60;;;;;;;-141.02;100.00;45328.69;5135739;27;20305;-63
2023/07/13 02:50:16;;;;;;;15.77;15.07;;;;;;;-141.02;100.00;44863.81;5135645;27;20249;-64
2023/07/13 02:52:43;;;;;;;15.40;14.80;;;;;;;-141.02;100.00;44936.78;5135167;27;20249;-63
2023/07/13 02:55:11;;;;;;;15.88;15.18;;;;;;;-141.02;100.00;45178.84;5135573;27;20201;-60
2023/07/13 02:57:38;;;;;;;15.68;15.02;;;;;;;-141.02;100.00;45563.09;5135483;27;20188;-55
2023/07/13 03:00:07;;;;;;;15.65;15.00;;;;;;;-141.02;100.00;46183.72;5135495;27;20272;-56
2023/07/13 03:02:35;;;;;;;15.00;14.40;;;;;;;-141.02;100.00;47371.50;5135187;27;20208;-58
2023/07/13 03:05:04;;;;;;;14.27;13.77;;;;;;;-141.02;100.00;48965.50;5135033;27;20287;-55
2023/07/13 03:07:32;;;;;;;14.07;13.57;;;;;;;-141.02;100.00;49413.66;5135065;27;20670;-56
2023/07/13 03:10:00;;;;;;;14.02;13.52;;;;;;;-141.02;100.00;50419.78;5135176;27;20277;-58
2023/07/13 03:12:27;;;;;;;13.60;13.10;;;;;;;-141.02;100.00;51483.97;5134829;27;20200;-60
2023/07/13 03:14:54;;;;;;;13.55;13.05;;;;;;;-141.02;100.00;52057.56;5134780;27;20234;-58
2023/07/13 03:17:21;;;;;;;13.73;13.23;;;;;;;-141.02;100.00;52621.66;5134791;27;20287;-55
2023/07/13 03:19:49;;;;;;;13.68;13.18;;;;;;;-141.02;100.00;52683.25;5135228;27;20271;-59
2023/07/13 03:22:18;;;;;;;13.57;13.07;;;;;;;-141.02;100.00;52856.53;5134995;27;20696;-58
2023/07/13 03:24:45;;;;;;;13.38;12.90;;;;;;;-141.02;100.00;53114.56;5135019;27;20192;-59
2023/07/13 03:27:12;;;;;;;13.65;13.15;;;;;;;-141.02;100.00;54112.19;5135532;27;20228;-59
2023/07/13 03:29:39;;;;;;;13.55;13.05;;;;;;;-141.02;100.00;54297.09;5134943;27;20275;-62
2023/07/13 03:32:07;;;;;;;13.30;12.90;;;;;;;-141.02;100.00;54589.91;5134628;27;20196;-55
2023/07/13 03:34:35;;;;;;;13.90;13.40;;;;;;;-141.02;100.00;54784.47;5134410;27;20311;-61
2023/07/13 03:37:02;;;;;;;13.50;13.00;;;;;;;-141.02;100.00;55560.97;5134901;27;20312;-60
2023/07/13 03:39:30;;;;;;;13.40;12.90;;;;;;;-141.02;100.00;55406.81;5135145;27;20200;-55
2023/07/13 03:41:58;;;;;;;13.00;12.60;;;;;;;-141.02;100.00;56493.75;5134673;27;20288;-62
2023/07/13 03:44:24;;;;;;;13.75;13.25;;;;;;;-141.02;100.00;55790.28;5134255;27;20620;-56
2023/07/13 03:46:51;;;;;;;14.57;13.98;;;;;;;-141.02;100.00;54597.59;5134628;27;20216;-55
2023/07/13 03:49:18;;;;;;;15.55;14.85;;;;;;;-141.02;100.00;53156.94;5134617;27;20231;-58
2023/07/13 03:51:46;;;;;;;16.30;15.50;;;;;;;-141.02;100.00;52590.84;5134466;27;20247;-58
2023/07/13 03:54:13;;;;;;;16.25;15.45;;;;;;;-141.02;100.00;53112.63;5134870;27;20556;-58
2023/07/13 03:56:41;;;;;;;16.95;16.15;;;;;;;-141.02;100.00;52579.28;5134342;27;20192;-60
2023/07/13 03:59:08;;;;;;;17.42;16.52;;;;;;;-141.02;100.00;52228.91;5134378;27;20215;-62
2023/07/13 04:01:35;;;;;;;17.90;16.90;;;;;;;-141.02;100.00;52078.75;5134317;27;20282;-61
2023/07/13 04:04:02;;;;;;;18.00;17.00;;;;;;;-141.02;100.00;52402.16;5134194;27;20196;-56
2023/07/13 04:06:31;;;;;;;17.60;16.70;;;;;;;-141.02;100.00;52845.00;5133955;27;20193;-61
2023/07/13 04:08:59;;;;;;;17.27;16.38;;;;;;;-141.02;100.00;53262.84;5134315;27;20202;-59
2023/07/13 04:11:29;;;;;;;17.23;16.33;;;;;;;-141.02;100.00;53280.16;5133956;27;20224;-58
2023/07/13 04:13:58;;;;;;;17.27;16.38;;;;;;;-141.02;100.00;53530.53;5133104;27;20289;-64
2023/07/13 04:16:26;;;;;;;17.63;16.70;;;;;;;-141.02;100.00;54108.31;5133974;27;20283;-58
2023/07/13 04:18:54;;;;;;;17.52;16.63;;;;;;;-141.02;100.00;55534.00;5133688;27;20235;-57
2023/07/13 04:21:22;;;;;;;17.45;16.55;;;;;;;-141.02;100.00;55058.06;5133604;27;20576;-59
2023/07/13 04:23:49;;;;;;;18.48;17.48;;;;;;;-141.02;97.39;56112.13;5133865;27;20717;-57
2023/07/13 04:26:16;;;;;;;18.35;17.35;;;;;;;-141.02;92.78;57592.63;5133494;27;20725;-60
2023/07/13 04:28:43;;;;;;;19.00;17.85;;;;;;;-141.02;86.22;57257.16;5133809;27;20224;-60
2023/07/13 04:31:11;;;;;;;20.02;18.83;;;;;;;-141.02;81.79;56493.75;5134541;27;20600;-62
2023/07/13 04:33:38;;;;;;;20.30;19.00;;;;;;;-141.02;80.57;56640.25;5133632;27;20330;-60
2023/07/13 04:36:06;;;;;;;20.10;18.80;;;;;;;-141.02;80.67;55724.75;5133392;27;20232;-61
2023/07/13 04:38:33;;;;;;;19.70;18.50;;;;;;;-141.02;81.73;55907.84;5133300;27;20250;-59
2023/07/13 04:41:03;;;;;;;20.20;18.90;;;;;;;-141.02;80.25;56717.38;5133304;27;20228;-64
2023/07/13 04:43:31;;;;;;;21.20;19.90;;;;;;;-141.02;74.77;54890.44;5133530;27;20666;-65
2023/07/13 04:45:58;;;;;;;21.38;19.98;;;;;;;-141.02;73.67;53253.22;5133598;27;20275;-58
2023/07/13 04:48:27;;;;;;;21.73;20.33;;;;;;;-141.02;74.23;52282.81;5133489;27;20215;-60
2023/07/13 04:50:58;;;;;;;21.25;19.85;;;;;;;-141.02;73.12;51986.34;5133475;27;20192;-62
2023/07/13 04:53:25;;;;;;;24.60;23.00;;;;;;;-141.02;73.38;53328.31;5133385;27;20249;-56
2023/07/13 04:55:52;;;;;;;20.92;19.58;;;;;;;-141.02;71.83;53060.66;5133350;27;20251;-63
2023/07/13 04:58:19;;;;;;;21.58;20.17;;;;;;;-141.02;70.84;53380.31;5133742;27;20238;-62
2023/07/13 05:00:46;;;;;;;21.38;19.88;;;;;;;-141.02;70.59;52115.31;5133341;27;20232;-56
2023/07/13 05:03:13;;;;;;;21.15;19.75;;;;;;;-141.02;72.44;51684.16;5132997;27;20654;-56
2023/07/13 05:05:42;;;;;;;21.08;19.67;;;;;;;-141.02;72.70;51243.41;5133344;27;20193;-56
2023/07/13 05:08:09;;;;;;;20.80;19.40;;;;;;;-141.02;72.68;50981.66;5132984;27;20224;-61
2023/07/13 05:10:35;;;;;;;20.42;19.13;;;;;;;-141.02;72.97;51651.41;5133311;27;20224;-59
2023/07/13 05:13:02;;;;;;;20.23;18.92;;;;;;;-141.02;71.38;52071.06;5133176;27;20697;-57
2023/07/13 05:15:30;;;;;;;21.05;19.65;;;;;;;-141.02;71.09;51986.34;5132850;28;20227;-58
2023/07/13 05:17:57;;;;;;;20.58;19.27;;;;;;;-141.02;72.35;53445.78;5132760;28;20617;-57
2023/07/13 05:20:24;;;;;;;21.25;19.85;;;;;;;-141.02;69.00;53422.69;5132869;28;20193;-59
2023/07/13 05:22:52;;;;;;;20.85;19.45;;;;;;;-141.02;69.97;55350.94;5132897;27;20192;-57
2023/07/13 05:25:19;;;;;;;21.58;20.17;;;;;;;-141.02;69.46;54185.38;5133791;27;20279;-59
2023/07/13 05:27:47;;;;;;;21.20;19.80;;;;;;;-141.02;67.85;54273.97;5137410;27;20224;-58
2023/07/13 05:30:14;;;;;;;21.60;20.20;;;;;;;-141.02;68.63;51678.38;5137276;27;20196;-61
2023/07/13 05:32:44;;;;;;;20.92;19.60;;;;;;;-141.02;73.56;50785.38;5136915;27;20745;-58
2023/07/13 05:35:11;;;;;;;20.92;19.60;;;;;;;-141.02;76.52;50677.63;5136802;27;20224;-57
2023/07/13 05:37:39;;;;;;;21.17;19.88;;;;;;;-141.02;76.86;51512.84;5137117;27;20606;-61
2023/07/13 05:40:08;;;;;;;20.67;19.38;;;;;;;-141.02;77.69;50823.88;5136838;27;20288;-61
2023/07/13 05:42:35;;;;;;;21.00;19.70;;;;;;;-141.02;77.50;51974.81;5136724;27;20233;-62
2023/07/13 05:45:03;;;;;;;21.02;19.73;;;;;;;-141.02;79.38;52887.34;5137306;27;20207;-64
2023/07/13 05:47:30;;;;;;;20.45;19.25;;;;;;;-141.02;80.47;55520.50;5136825;27;20224;-57
2023/07/13 05:49:57;;;;;;;20.77;19.48;;;;;;;-141.02;78.42;56237.41;5136589;27;20188;-64
2023/07/13 05:52:24;;;;;;;21.00;19.60;;;;;;;-141.02;79.08;55641.91;5136783;27;20245;-57
2023/07/13 05:54:51;;;;;;;20.30;19.00;;;;;;;-141.02;77.41;55090.81;5136728;27;20235;-59
2023/07/13 05:57:19;;;;;;;21.48;20.08;;;;;;;-141.02;77.00;55693.94;5136424;27;20231;-58
2023/07/13 05:59:46;;;;;;;20.77;19.40;;;;;;;-141.02;75.86;56274.03;5136347;27;20232;-58
2023/07/13 06:02:15;;;;;;;21.05;19.65;;;;;;;-141.02;76.06;57226.31;5136376;27;20291;-57
2023/07/13 06:04:42;;;;;;;21.15;19.75;;;;;;;-141.02;76.10;56644.13;5136684;27;20225;-61
2023/07/13 06:07:09;;;;;;;20.70;19.30;;;;;;;-141.02;76.96;56391.59;5136556;27;20192;-58
2023/07/13 06:09:36;;;;;;;19.90;18.60;;;;;;;-141.02;76.84;56551.59;5136256;27;20228;-57
2023/07/13 06:12:03;;;;;;;21.63;20.23;;;;;;;-141.02;77.70;56200.78;5136543;27;20283;-64
2023/07/13 06:14:31;;;;;;;22.15;20.83;;;;;;;-141.02;75.82;56615.19;5136059;27;20323;-56
2023/07/13 06:16:58;;;;;;;19.88;18.67;;;;;;;-141.02;76.31;57671.69;5136321;27;20673;-63
2023/07/13 06:19:25;;;;;;;20.63;19.33;;;;;;;-141.02;76.19;57993.72;5136054;27;20547;-59
2023/07/13 06:21:52;;;;;;;21.80;20.40;;;;;;;-141.02;77.39;58981.19;5136545;27;20192;-58
2023/07/13 06:24:19;;;;;;;21.33;20.02;;;;;;;-141.02;77.84;60709.94;5135894;27;20296;-56
2023/07/13 06:26:46;;;;;;;20.65;19.35;;;;;;;-141.02;74.39;59968.94;5136225;27;20257;-57
2023/07/13 06:29:13;;;;;;;21.70;20.35;;;;;;;-141.02;69.89;57014.22;5136194;27;20273;-57
2023/07/13 06:31:42;;;;;;;22.27;20.88;;;;;;;-141.02;73.64;58452.69;5135813;27;20204;-59
2023/07/13 06:34:09;;;;;;;21.30;20.02;;;;;;;-141.02;74.36;59721.97;5135929;27;20315;-59
2023/07/13 06:36:38;;;;;;;21.33;20.13;;;;;;;-141.02;73.75;58487.41;5135454;27;20288;-61
2023/07/13 06:39:05;;;;;;;21.58;20.27;;;;;;;-141.02;74.93;58734.28;5135872;27;20192;-59
2023/07/13 06:41:33;;;;;;;21.05;19.85;;;;;;;-141.02;74.60;59228.09;5136192;27;20196;-65
2023/07/13 06:44:00;;;;;;;21.35;20.05;;;;;;;-141.02;73.28;59475.03;5135915;27;20196;-57
2023/07/13 06:46:29;;;;;;;21.58;20.27;;;;;;;-141.02;73.89;60215.94;5135762;27;20224;-57
2023/07/13 06:48:57;;;;;;;21.17;19.88;;;;;;;-141.02;72.86;61204.03;5135833;27;20192;-60
2023/07/13 06:51:25;;;;;;;21.17;19.88;;;;;;;-141.02;71.38;59968.94;5135707;27;20197;-57
2023/07/13 06:53:54;;;;;;;21.95;20.65;;;;;;;-141.02;70.93;59228.09;5135592;27;20196;-63
2023/07/13 06:56:21;;;;;;;22.50;21.10;;;;;;;-141.02;71.30;60462.94;5135245;27;20228;-60
2023/07/13 06:58:48;;;;;;;21.83;20.42;;;;;;;-141.02;71.52;60957.00;5135611;27;20271;-65
2023/07/13 07:01:15;;;;;;;21.73;20.33;;;;;;;-141.02;72.94;61945.31;5135285;27;20200;-65
2023/07/13 07:03:42;;;;;;;21.38;19.88;;;;;;;-141.02;69.85;59228.09;5135159;27;20236;-59
2023/07/13 07:06:15;;;;;;;23.20;21.67;;;;;;;-141.02;70.01;60709.94;5135486;27;20283;-65
2023/07/13 07:08:42;;;;;;;21.65;20.27;;;;;;;-141.02;70.33;62439.59;5135094;27;20181;-60
2023/07/13 07:11:12;;;;;;;21.90;20.50;;;;;;;-141.02;69.14;62439.59;5135279;27;20196;-61
2023/07/13 07:13:39;;;;;;;21.50;20.10;;;;;;;-141.02;69.90;62439.59;5134845;27;20230;-62
2023/07/13 07:16:06;;;;;;;21.90;20.50;;;;;;;-141.02;67.62;63181.16;5135223;27;20726;-64
2023/07/13 07:18:33;;;;;;;21.75;20.35;;;;;;;-141.02;68.32;64664.72;5135238;27;20193;-63
2023/07/13 07:21:00;;;;;;;21.98;20.58;;;;;;;-141.02;65.05;61451.13;5135076;27;20192;-57
2023/07/13 07:23:29;;;;;;;21.50;20.10;;;;;;;-141.02;63.34;59721.97;5135110;27;20307;-59
2023/07/13 07:25:56;;;;;;;22.02;20.52;;;;;;;-141.02;66.65;63181.16;5135023;27;20251;-60
2023/07/13 07:28:23;;;;;;;22.92;21.42;;;;;;;-141.02;58.18;55792.22;5134670;27;20547;-57
2023/07/13 07:30:54;;;;;;;22.90;21.40;;;;;;;-141.02;64.38;58240.56;5134886;27;20206;-63
2023/07/13 07:33:21;;;;;;;23.17;21.67;;;;;;;-141.02;61.75;57550.22;5134929;27;20180;-65
2023/07/13 07:35:48;;;;;;;22.75;21.25;;;;;;;-141.02;60.13;55241.09;5134790;27;20228;-56
2023/07/13 07:38:15;;;;;;;22.05;20.45;;;;;;;-141.02;61.46;55744.03;5134738;27;20280;-57
2023/07/13 07:40:45;;;;;;;23.33;21.83;;;;;;;-141.02;59.83;56233.56;5134776;27;20275;-57
2023/07/13 07:43:13;;;;;;;23.55;21.95;;;;;;;-141.02;60.16;58734.28;5134782;27;20196;-63
2023/07/13 07:45:41;;;;;;;22.35;20.95;;;;;;;-141.02;59.67;59721.97;5134587;27;20260;-62
2023/07/13 07:48:09;;;;;;;23.42;22.00;;;;;;;-141.02;57.54;57928.16;5133699;27;20193;-57
2023/07/13 07:50:38;;;;;;;22.17;20.58;;;;;;;-141.02;57.92;59228.09;5134202;27;20622;-57
2023/07/13 07:53:07;;;;;;;23.55;22.05;;;;;;;-141.02;58.64;60215.94;5134413;27;20200;-58
2023/07/13 07:55:35;;;;;;;23.15;21.65;;;;;;;-141.02;59.33;59721.97;5134358;27;20594;-57
2023/07/13 07:58:04;;;;;;;22.70;21.20;;;;;;;-141.02;60.10;60709.94;5134342;27;20197;-65
2023/07/13 08:00:32;;;;;;;23.15;21.55;;;;;;;-141.02;60.62;59721.97;5134046;27;20254;-57
2023/07/13 08:02:59;;;;;;;23.98;22.38;;;;;;;-141.02;58.12;55611.06;5134352;27;20275;-64
2023/07/13 08:05:27;;;;;;;22.95;21.45;;;;;;;-141.02;58.91;55140.91;5133991;27;20242;-61
2023/07/13 08:07:54;;;;;;;22.95;21.55;;;;;;;-141.02;58.31;57544.44;5133891;27;20223;-63
2023/07/13 08:10:21;;;;;;;22.80;21.40;;;;;;;-141.02;58.28;58981.19;5133969;27;20239;-61
2023/07/13 08:12:48;;;;;;;23.60;22.20;;;;;;;-141.02;59.94;59721.97;5133875;27;20306;-64
2023/07/13 08:15:17;;;;;;;24.20;22.70;;;;;;;-141.02;59.09;59721.97;5133783;27;20693;-64
2023/07/13 08:17:44;;;;;;;24.50;23.00;;;;;;;-141.02;57.89;62933.94;5134168;27;20219;-64
2023/07/13 08:20:12;;;;;;;24.27;22.77;;;;;;;-141.02;56.31;61451.13;5133964;27;20337;-64
2023/07/13 08:22:39;;;;;;;22.25;20.75;;;;;;;-141.02;55.98;58734.28;5134020;27;20193;-62
2023/07/13 08:25:07;;;;;;;23.15;21.70;;;;;;;-141.02;56.07;57926.22;5133868;27;20279;-63
2023/07/13 08:27:34;;;;;;;22.92;21.52;;;;;;;-141.02;57.23;60215.94;5133582;27;20659;-62
2023/07/13 08:30:01;;;;;;;23.02;21.63;;;;;;;-141.02;56.21;59968.94;5133507;27;20577;-61
2023/07/13 08:32:30;;;;;;;23.63;22.13;;;;;;;-141.02;57.03;60709.94;5133746;27;20192;-65
2023/07/13 08:34:57;;;;;;;23.13;21.63;;;;;;;-141.02;56.07;59721.97;5133401;27;20259;-63
2023/07/13 08:37:23;;;;;;;22.83;21.33;;;;;;;-141.02;54.50;58659.06;5133747;27;20649;-66
2023/07/13 08:39:51;;;;;;;22.70;21.20;;;;;;;-141.02;55.82;62192.44;5133679;27;20280;-62
2023/07/13 08:42:31;;;;;;;23.13;21.63;;;;;;;-141.02;55.81;61451.13;5133276;27;20193;-62
2023/07/13 08:45:08;;;;;;;23.13;21.70;;;;;;;-141.02;57.52;65159.41;5133656;27;20220;-63
2023/07/13 08:47:40;;;;;;;23.13;21.65;;;;;;;-141.02;54.54;63181.16;5133242;27;20235;-60
2023/07/13 08:50:13;;;;;;;23.95;22.45;;;;;;;-141.02;55.52;63922.84;5133564;27;20271;-64
2023/07/13 08:52:42;;;;;;;24.05;22.55;;;;;;;-141.02;55.61;61945.31;5133472;27;20212;-62
2023/07/13 08:55:16;;;;;;;23.88;22.27;;;;;;;-141.02;53.48;63428.38;5133069;27;20305;-62
2023/07/13 08:57:46;;;;;;;24.00;22.40;;;;;;;-141.02;53.46;60709.94;5133177;27;20271;-66
2023/07/13 09:00:15;;;;;;;23.33;21.83;;;;;;;-141.02;53.95;60215.94;5132970;27;20621;-60
2023/07/13 09:02:51;;;;;;;23.38;21.77;;;;;;;-141.02;55.59;60215.94;5133044;27;20188;-57
2023/07/13 09:05:26;;;;;;;23.50;22.00;;;;;;;-141.02;56.67;59475.03;5133404;27;20184;-59
2023/07/13 09:08:11;;;;;;;24.00;22.50;;;;;;;-141.02;55.55;57897.28;5133373;27;20275;-57
2023/07/13 09:10:45;;;;;;;23.65;22.15;;;;;;;-141.02;55.31;59721.97;5133363;27;20242;-58
2023/07/13 09:13:26;;;;;;;23.70;22.20;;;;;;;-141.02;55.52;61451.13;5132935;27;20324;-62
2023/07/13 09:15:53;;;;;;;23.58;22.08;;;;;;;-141.02;53.34;61451.13;5133285;27;20271;-58
2023/07/13 09:18:27;;;;;;;23.55;22.05;;;;;;;-141.02;52.41;58981.19;5133339;28;20202;-64
2023/07/13 09:20:58;;;;;;;23.88;22.38;;;;;;;-141.02;51.28;57746.88;5133441;28;20184;-62
2023/07/13 09:23:29;;;;;;;24.42;22.83;;;;;;;-141.02;52.47;58981.19;5132913;28;20630;-59
2023/07/13 09:26:02;;;;;;;23.23;21.65;;;;;;;-141.02;52.71;58734.28;5132900;28;20189;-62
2023/07/13 09:28:38;;;;;;;23.40;21.90;;;;;;;-141.02;52.47;58981.19;5133142;27;20184;-65
2023/07/13 09:31:08;;;;;;;23.85;22.25;;;;;;;-141.02;53.11;59721.97;5133009;28;20275;-60
2023/07/13 09:33:37;;;;;;;23.45;21.95;;;;;;;-141.02;53.43;59475.03;5132831;28;20254;-62
2023/07/13 09:36:18;;;;;;;23.85;22.35;;;;;;;-141.02;52.93;60462.94;5132921;28;20224;-63
2023/07/13 09:38:46;;;;;;;23.75;22.25;;;;;;;-141.02;53.23;61698.22;5132802;28;20191;-66
2023/07/13 09:41:24;;;;;;;23.58;22.08;;;;;;;-141.02;52.30;60957.00;5132633;28;20200;-63
2023/07/13 09:44:11;;;;;;;24.25;22.67;;;;;;;-141.02;49.37;58697.63;5132774;27;20192;-64
2023/07/13 09:46:38;;;;;;;24.05;22.55;;;;;;;-141.02;49.53;59475.03;5132933;27;20189;-61
2023/07/13 09:49:08;;;;;;;24.23;22.73;;;;;;;-141.02;51.28;60215.94;5132644;28;20283;-62
2023/07/13 09:51:35;;;;;;;23.67;22.17;;;;;;;-141.02;50.89;63675.59;5132487;28;20192;-60
2023/07/13 09:54:03;;;;;;;23.98;22.38;;;;;;;-141.02;49.76;63428.38;5132557;28;20288;-63
2023/07/13 09:56:31;;;;;;;24.30;22.70;;;;;;;-141.02;48.53;62439.59;5133006;27;20231;-65
2023/07/13 09:58:59;;;;;;;23.88;22.30;;;;;;;-141.02;47.69;59721.97;5132849;28;20196;-62
2023/07/13 10:01:37;;;;;;;23.83;22.33;;;;;;;-141.02;49.25;60215.94;5132799;27;20608;-63
2023/07/13 10:04:14;;;;;;;23.77;22.27;;;;;;;-141.02;47.34;61451.13;5132828;27;20188;-64
2023/07/13 10:06:42;;;;;;;24.42;22.83;;;;;;;-141.02;49.37;64664.72;5132975;28;20275;-65
2023/07/13 10:09:10;;;;;;;70.78;65.32;;;;;;;-141.02;45.69;61451.13;5132484;27;20255;-57
2023/07/13 10:11:38;;;;;;;24.15;22.55;;;;;;;-141.02;47.03;61451.13;5133517;27;20283;-64
2023/07/13 10:14:13;;;;;;;24.75;23.15;;;;;;;-141.02;46.24;60709.94;5136441;27;20319;-65
2023/07/13 10:16:43;;;;;;;24.77;23.17;;;;;;;-141.02;47.42;62933.94;5136135;27;20298;-65
2023/07/13 10:19:16;;;;;;;23.92;22.42;;;;;;;-141.02;46.55;61945.31;5135979;27;20257;-61
2023/07/13 10:21:54;;;;;;;24.98;23.38;;;;;;;-141.02;48.13;63922.84;5136502;27;20184;-65
2023/07/13 10:24:24;;;;;;;24.45;22.85;;;;;;;-141.02;46.53;59721.97;5136051;27;20306;-58
2023/07/13 10:26:57;;;;;;;25.77;24.17;;;;;;;-141.02;47.12;59721.97;5136301;27;20200;-64
2023/07/13 10:29:28;;;;;;;25.42;23.83;;;;;;;-141.02;46.06;58487.41;5136533;27;20184;-59
2023/07/13 10:31:57;;;;;;;24.75;23.15;;;;;;;-141.02;46.12;57338.13;5135956;27;20616;-64
2023/07/13 10:34:25;;;;;;;23.75;22.25;;;;;;;-141.02;48.30;59162.50;5136328;27;20196;-64
2023/07/13 10:36:53;;;;;;;23.85;22.25;;;;;;;-141.02;46.42;57847.16;5136051;27;20604;-64
2023/07/13 10:39:24;;;;;;;25.00;23.40;;;;;;;-141.02;46.50;58846.16;5135973;27;20231;-64
2023/07/13 10:42:01;;;;;;;24.95;23.38;;;;;;;-141.02;46.52;58043.84;5135732;27;20224;-62
2023/07/13 10:44:30;;;;;;;25.58;23.98;;;;;;;-141.02;46.61;62686.75;5135682;27;20271;-66
2023/07/13 10:47:01;;;;;;;24.60;23.00;;;;;;;-141.02;43.56;61204.03;5135963;27;20644;-66
2023/07/13 10:49:32;;;;;;;26.40;24.70;;;;;;;-141.02;44.53;59073.78;5135738;27;20199;-60
2023/07/13 10:51:59;;;;;;;24.10;22.52;;;;;;;-141.02;45.39;60957.00;5135522;27;20184;-57
2023/07/13 10:54:31;;;;;;;24.98;23.38;;;;;;;-141.02;47.11;62439.59;5135635;27;20571;-60
2023/07/13 10:57:19;;;;;;;24.85;23.25;;;;;;;-141.02;44.36;61204.03;5135356;27;20220;-57
2023/07/13 11:00:10;;;;;;;25.25;23.65;;;;;;;-141.02;44.99;61451.13;5135842;27;20227;-57
2023/07/13 11:02:37;;;;;;;25.33;23.73;;;;;;;-141.02;44.67;62439.59;5135120;27;20802;-58
2023/07/13 11:05:28;;;;;;;24.15;22.65;;;;;;;-141.02;44.37;63675.59;5135485;27;20244;-62
2023/07/13 11:08:04;;;;;;;23.75;22.15;;;;;;;-141.02;45.14;62192.44;5135174;27;20650;-61
2023/07/13 11:10:52;;;;;;;23.70;22.20;;;;;;;-141.02;45.63;62686.75;5135443;27;20267;-58
2023/07/13 11:13:54;;;;;;;24.80;23.20;;;;;;;-141.02;44.21;62439.59;5135049;27;20233;-62
2023/07/13 11:16:44;;;;;;;24.92;23.23;;;;;;;-141.02;43.22;61945.31;5135276;27;20263;-58
2023/07/13 11:19:43;;;;;;;25.02;23.42;;;;;;;-141.02;44.47;63181.16;5134868;27;20682;-58
2023/07/13 11:22:24;;;;;;;25.20;23.52;;;;;;;-141.02;43.80;60957.00;5131735;27;20272;-59
2023/07/13 11:24:54;;;;;;;25.60;23.90;;;;;;;-141.02;43.43;60709.94;5135137;27;20188;-57
2023/07/13 11:27:36;;;;;;;25.42;23.83;;;;;;;-141.02;42.43;59858.97;5134697;27;20202;-64
2023/07/13 11:30:23;;;;;;;24.27;22.67;;;;;;;-141.02;41.98;59096.91;5134724;27;20184;-62
2023/07/13 11:32:53;;;;;;;24.88;23.27;;;;;;;-141.02;44.48;61204.03;5135011;27;20192;-58
2023/07/13 11:35:27;;;;;;;24.45;22.85;;;;;;;-141.02;43.79;59968.94;5135049;27;20195;-62
2023/07/13 11:37:56;;;;;;;24.20;22.60;;;;;;;-141.02;44.09;60709.94;5134929;27;20221;-57
2023/07/13 11:40:29;;;;;;;24.60;23.00;;;;;;;-141.02;44.53;60957.00;5134810;27;20253;-65
2023/07/13 11:43:01;;;;;;;24.80;23.20;;;;;;;-141.02;44.81;60215.94;5135003;27;20190;-64
2023/07/13 11:45:28;;;;;;;25.13;23.52;;;;;;;-141.02;45.20;61451.13;5134854;27;20184;-60